Time;durP1;ratioP1;P1;durP2;ratioP2;P2;SDS_P1;SDS_P2;PMS_P1;PMS_P2;Temp;Humidity;BMP_temperature;BMP_pressure;BME280_temperature;BME280_humidity;BME280_pressure;Samples;Min_cycle;Max_cycle;Signal;HPM_P1;HPM_P2
2023/05/08 00:01:55;;;;;;;3.25;2.92;;;;;;;8.50;85.26;102433.34;4952263;28;20238;-51
2023/05/08 00:04:20;;;;;;;3.78;2.63;;;;;;;8.54;85.26;102437.81;4962921;28;20174;-49
2023/05/08 00:06:46;;;;;;;3.72;2.70;;;;;;;8.54;85.35;102429.78;4963208;28;20178;-48
2023/05/08 00:09:12;;;;;;;3.25;2.97;;;;;;;8.48;85.65;102438.69;4955435;29;20202;-47
2023/05/08 00:11:37;;;;;;;4.35;2.85;;;;;;;8.45;85.98;102433.38;4950592;28;20234;-48
2023/05/08 00:14:03;;;;;;;4.72;3.20;;;;;;;8.45;85.99;102439.59;4966407;28;20206;-52
2023/05/08 00:16:30;;;;;;;2.72;2.50;;;;;;;8.42;86.31;102438.75;4964986;28;20201;-53
2023/05/08 00:18:55;;;;;;;7.03;3.00;;;;;;;8.33;86.63;102442.28;4953571;28;20191;-49
2023/05/08 00:21:21;;;;;;;3.75;2.53;;;;;;;8.28;86.95;102441.41;4965329;28;20189;-52
2023/05/08 00:23:46;;;;;;;5.32;2.78;;;;;;;8.23;87.53;102441.41;4964810;28;20186;-48
2023/05/08 00:26:12;;;;;;;3.10;2.80;;;;;;;8.22;87.73;102449.41;4960098;28;20552;-48
2023/05/08 00:28:37;;;;;;;4.03;2.70;;;;;;;8.17;88.05;102449.44;4965565;28;20252;-51
2023/05/08 00:31:03;;;;;;;3.13;2.58;;;;;;;8.29;88.04;102444.94;4971150;28;20233;-49
2023/05/08 00:33:28;;;;;;;4.47;3.25;;;;;;;8.27;87.99;102449.44;4949262;28;20647;-47
2023/05/08 00:35:59;;;;;;;3.10;2.83;;;;;;;8.25;88.21;102452.09;4958357;28;20225;-50
2023/05/08 00:38:24;;;;;;;4.20;3.13;;;;;;;8.13;88.33;102462.78;4957801;28;20191;-47
2023/05/08 00:40:50;;;;;;;4.63;3.08;;;;;;;8.02;88.63;102461.06;4948148;28;20173;-52
2023/05/08 00:43:15;;;;;;;2.83;2.60;;;;;;;7.92;89.68;102458.41;4947564;28;20216;-51
2023/05/08 00:45:41;;;;;;;4.18;2.90;;;;;;;7.90;90.41;102466.41;4959737;28;20191;-50
2023/05/08 00:48:07;;;;;;;5.72;2.90;;;;;;;7.93;90.32;102462.84;4957914;28;20205;-48
2023/05/08 00:50:33;;;;;;;6.05;2.90;;;;;;;7.95;90.40;102479.72;4967523;28;20634;-51
2023/05/08 00:53:01;;;;;;;4.07;3.08;;;;;;;7.91;90.83;102476.16;4965544;28;20206;-51
2023/05/08 00:55:28;;;;;;;3.88;3.13;;;;;;;7.93;91.15;102465.50;4962325;28;20282;-49
2023/05/08 00:57:54;;;;;;;3.17;2.80;;;;;;;7.97;91.08;102464.59;4950189;28;20284;-50
2023/05/08 01:00:20;;;;;;;7.45;3.10;;;;;;;7.97;91.24;102477.97;4967876;28;20257;-50
2023/05/08 01:02:46;;;;;;;5.07;3.40;;;;;;;7.91;91.58;102480.63;4964338;28;20212;-50
2023/05/08 01:05:12;;;;;;;2.90;2.70;;;;;;;7.94;91.38;102464.63;4949495;28;20182;-51
2023/05/08 01:07:37;;;;;;;3.20;2.90;;;;;;;7.92;91.71;102472.63;4961904;28;20257;-52
2023/05/08 01:10:04;;;;;;;3.42;2.67;;;;;;;7.86;92.13;102480.63;4959208;28;20206;-51
2023/05/08 01:13:07;;;;;;;3.42;2.83;;;;;;;7.81;91.93;102469.97;4956869;28;20201;-52
2023/05/08 01:15:40;;;;;;;4.18;3.05;;;;;;;7.75;92.62;102467.28;4951456;28;20662;-52
2023/05/08 01:18:33;;;;;;;3.22;2.88;;;;;;;7.72;92.61;102467.31;4954620;28;20192;-50
2023/05/08 01:21:04;;;;;;;3.42;2.95;;;;;;;7.65;93.25;102470.84;4947290;28;20186;-52
2023/05/08 01:23:46;;;;;;;3.45;3.03;;;;;;;7.50;93.64;102476.16;4958841;28;20309;-51
2023/05/08 01:26:30;;;;;;;3.30;2.78;;;;;;;7.42;94.18;102471.72;4958012;28;20179;-50
2023/05/08 01:29:29;;;;;;;3.05;2.80;;;;;;;7.45;94.74;102468.16;4946196;28;20170;-51
2023/05/08 01:32:16;;;;;;;3.85;3.00;;;;;;;7.37;95.06;102476.16;4961039;28;20206;-47
2023/05/08 01:34:52;;;;;;;4.18;2.65;;;;;;;7.34;95.51;102485.91;4964510;28;20650;-50
2023/05/08 01:37:29;;;;;;;3.05;2.75;;;;;;;7.35;96.13;102477.06;4964477;28;20209;-53
2023/05/08 01:39:57;;;;;;;3.92;2.70;;;;;;;7.23;96.42;102478.78;4941973;29;20194;-51
2023/05/08 01:42:50;;;;;;;5.43;3.03;;;;;;;7.06;96.89;102482.31;4942262;28;20202;-50
2023/05/08 01:45:24;;;;;;;4.43;3.10;;;;;;;7.06;97.83;102484.97;4948277;28;20178;-49
2023/05/08 01:48:10;;;;;;;3.38;3.05;;;;;;;6.96;98.47;102487.59;4959969;28;20172;-48
2023/05/08 01:50:48;;;;;;;4.07;3.08;;;;;;;7.04;98.94;102502.72;4943881;28;20337;-50
2023/05/08 01:53:24;;;;;;;3.55;3.10;;;;;;;7.00;99.93;102500.06;4963828;28;20704;-48
2023/05/08 01:55:54;;;;;;;2.88;2.67;;;;;;;7.03;99.88;102500.97;4941004;29;20210;-47
2023/05/08 01:58:23;;;;;;;6.03;2.88;;;;;;;7.08;100.00;102501.84;4952786;28;20213;-49
2023/05/08 02:00:50;;;;;;;4.25;2.78;;;;;;;7.12;100.00;102499.19;4962428;28;20183;-49
2023/05/08 02:03:17;;;;;;;3.45;2.55;;;;;;;7.11;100.00;102505.44;4972040;28;20241;-49
2023/05/08 02:05:44;;;;;;;3.33;2.88;;;;;;;7.13;100.00;102508.09;4958126;28;20174;-49
2023/05/08 02:08:11;;;;;;;3.28;2.70;;;;;;;7.19;100.00;102502.75;4950675;28;20182;-47
2023/05/08 02:10:38;;;;;;;2.53;2.33;;;;;;;7.25;100.00;102499.25;4957096;28;20209;-49
2023/05/08 02:13:07;;;;;;;4.40;2.63;;;;;;;7.12;99.92;102501.84;4954615;28;20378;-47
2023/05/08 02:15:35;;;;;;;2.90;2.63;;;;;;;7.09;100.00;102498.31;4965474;28;20574;-48
2023/05/08 02:18:07;;;;;;;2.58;2.38;;;;;;;7.17;100.00;102496.53;4963606;28;20183;-49
2023/05/08 02:20:33;;;;;;;2.90;2.65;;;;;;;7.10;100.00;102497.41;4962908;28;20213;-49
2023/05/08 02:23:00;;;;;;;2.90;2.65;;;;;;;7.12;100.00;102499.19;4960288;28;20202;-48
2023/05/08 02:25:29;;;;;;;2.72;2.45;;;;;;;7.05;100.00;102497.41;4946460;28;20567;-48
2023/05/08 02:27:55;;;;;;;3.25;2.70;;;;;;;7.05;100.00;102493.84;4961259;28;20198;-47
2023/05/08 02:30:24;;;;;;;3.25;2.58;;;;;;;7.16;100.00;102502.78;4960158;28;20688;-48
2023/05/08 02:32:52;;;;;;;5.22;2.78;;;;;;;7.08;100.00;102497.41;4961076;28;20205;-49
2023/05/08 02:35:19;;;;;;;2.97;2.67;;;;;;;7.03;100.00;102498.28;4962386;28;20190;-49
2023/05/08 02:37:50;;;;;;;2.97;2.63;;;;;;;7.06;100.00;102503.63;4963592;28;20225;-48
2023/05/08 02:40:17;;;;;;;3.67;2.75;;;;;;;7.05;100.00;102504.53;4958778;28;20190;-48
2023/05/08 02:42:44;;;;;;;2.60;2.40;;;;;;;7.04;100.00;102492.06;4967996;28;20594;-49
2023/05/08 02:45:11;;;;;;;4.05;2.90;;;;;;;6.90;100.00;102500.91;4965407;28;20186;-49
2023/05/08 02:48:00;;;;;;;3.67;2.63;;;;;;;6.95;100.00;102493.84;4970737;28;20273;-50
2023/05/08 02:50:49;;;;;;;2.78;2.58;;;;;;;6.96;100.00;102490.28;4942445;28;20507;-48
2023/05/08 02:53:25;;;;;;;3.22;2.60;;;;;;;6.92;100.00;102492.91;4941218;29;20546;-47
2023/05/08 02:56:02;;;;;;;2.92;2.72;;;;;;;6.86;100.00;102498.22;4951163;29;20753;-47
2023/05/08 02:58:39;;;;;;;2.92;2.35;;;;;;;6.92;100.00;102488.47;4951232;29;20183;-50
2023/05/08 03:01:48;;;;;;;2.78;2.58;;;;;;;6.94;100.00;102492.03;4935135;29;20167;-51
2023/05/08 03:04:25;;;;;;;3.05;2.50;;;;;;;6.83;100.00;102484.91;4929867;28;20709;-47
2023/05/08 03:06:53;;;;;;;2.90;2.70;;;;;;;6.71;100.00;102473.31;4964202;28;20245;-47
2023/05/08 03:09:21;;;;;;;4.38;2.45;;;;;;;6.74;100.00;102485.75;4971668;28;20265;-48
2023/05/08 03:11:52;;;;;;;3.20;2.83;;;;;;;6.76;100.00;102482.22;4971687;28;20278;-46
2023/05/08 03:14:21;;;;;;;3.45;2.80;;;;;;;6.73;100.00;102483.97;4957926;28;20170;-50
2023/05/08 03:16:51;;;;;;;3.33;2.60;;;;;;;6.64;100.00;102482.13;4952247;29;20713;-45
2023/05/08 03:19:30;;;;;;;3.42;3.10;;;;;;;6.64;100.00;102481.25;4952337;28;20187;-48
2023/05/08 03:21:57;;;;;;;3.55;2.45;;;;;;;6.56;100.00;102479.47;4951972;28;20229;-45
2023/05/08 03:24:24;;;;;;;3.75;3.03;;;;;;;6.59;100.00;102484.78;4952002;29;20206;-47
2023/05/08 03:26:50;;;;;;;3.85;3.05;;;;;;;6.62;100.00;102488.34;4951982;28;20234;-45
2023/05/08 03:29:17;;;;;;;4.07;2.90;;;;;;;6.60;100.00;102481.25;4950355;29;20541;-45
2023/05/08 03:31:46;;;;;;;4.53;2.80;;;;;;;6.52;100.00;102475.00;4950459;29;20198;-47
2023/05/08 03:34:13;;;;;;;3.70;3.05;;;;;;;6.53;100.00;102476.75;4934585;29;20242;-48
2023/05/08 03:36:39;;;;;;;5.50;3.35;;;;;;;6.60;100.00;102465.28;4950488;29;20301;-51
2023/05/08 03:39:06;;;;;;;3.85;3.10;;;;;;;6.58;100.00;102474.13;4950148;28;20202;-52
2023/05/08 03:41:32;;;;;;;3.45;3.25;;;;;;;6.57;100.00;102472.34;4950256;29;20633;-47
2023/05/08 03:43:58;;;;;;;3.10;2.90;;;;;;;6.58;100.00;102468.78;4951984;28;20178;-47
2023/05/08 03:46:24;;;;;;;4.20;2.85;;;;;;;6.57;100.00;102470.56;4951055;28;20166;-49
2023/05/08 03:48:52;;;;;;;3.55;3.25;;;;;;;6.49;100.00;102464.31;4950457;29;20178;-47
2023/05/08 03:51:18;;;;;;;2.92;2.72;;;;;;;6.53;100.00;102465.22;4950295;29;20179;-48
2023/05/08 03:53:44;;;;;;;4.05;3.03;;;;;;;6.54;100.00;102459.03;4950807;28;20178;-47
2023/05/08 03:56:10;;;;;;;4.95;2.90;;;;;;;6.48;100.00;102467.88;4951608;28;20198;-51
2023/05/08 03:59:10;;;;;;;3.10;2.90;;;;;;;6.55;100.00;102464.34;4953546;28;20190;-48
2023/05/08 04:01:51;;;;;;;3.22;2.92;;;;;;;6.59;100.00;102451.94;4967213;28;20205;-47
2023/05/08 04:04:26;;;;;;;4.55;3.03;;;;;;;6.56;100.00;102460.81;4959353;28;20186;-47
2023/05/08 04:07:11;;;;;;;3.72;3.28;;;;;;;6.63;100.00;102456.41;4959466;28;20241;-49
2023/05/08 04:10:05;;;;;;;3.42;2.85;;;;;;;6.65;100.00;102467.03;4960436;28;20198;-48
2023/05/08 04:12:38;;;;;;;3.13;2.92;;;;;;;6.77;100.00;102457.34;4953710;28;20639;-48
2023/05/08 04:15:23;;;;;;;3.92;2.90;;;;;;;6.84;100.00;102452.91;4967265;28;20182;-48
2023/05/08 04:18:11;;;;;;;3.38;3.08;;;;;;;6.78;100.00;102448.47;4971292;28;20220;-48
2023/05/08 04:20:40;;;;;;;3.50;2.85;;;;;;;6.85;100.00;102452.03;4962411;28;20190;-47
2023/05/08 04:23:07;;;;;;;3.55;2.90;;;;;;;6.89;100.00;102450.28;4964579;28;20204;-49
2023/05/08 04:25:36;;;;;;;2.85;2.65;;;;;;;6.98;100.00;102448.53;4965387;28;20178;-48
2023/05/08 04:28:02;;;;;;;2.80;2.60;;;;;;;7.01;100.00;102455.63;4965815;28;20186;-48
2023/05/08 04:30:28;;;;;;;2.97;2.78;;;;;;;7.10;100.00;102454.78;4965706;28;20185;-48
2023/05/08 04:32:56;;;;;;;3.13;2.55;;;;;;;7.22;100.00;102453.03;4957519;28;20225;-49
2023/05/08 04:35:22;;;;;;;5.38;2.42;;;;;;;7.31;100.00;102449.50;4968077;28;20650;-49
2023/05/08 04:37:48;;;;;;;4.00;2.70;;;;;;;7.31;100.00;102449.50;4953889;28;20217;-51
2023/05/08 04:40:14;;;;;;;3.00;2.70;;;;;;;7.34;100.00;102444.16;4965074;28;20171;-49
2023/05/08 04:42:42;;;;;;;2.45;2.25;;;;;;;7.46;100.00;102448.63;4942747;28;20206;-51
2023/05/08 04:45:09;;;;;;;2.92;2.55;;;;;;;7.63;100.00;102448.59;4937536;28;20222;-49
2023/05/08 04:47:34;;;;;;;2.75;2.55;;;;;;;7.75;99.53;102445.94;4965867;28;20193;-48
2023/05/08 04:50:01;;;;;;;3.58;2.65;;;;;;;7.93;98.49;102458.38;4950097;28;20309;-50
2023/05/08 04:52:28;;;;;;;3.92;2.65;;;;;;;8.04;97.62;102445.00;4952266;28;20206;-49
2023/05/08 04:54:53;;;;;;;3.13;2.58;;;;;;;8.24;96.55;102442.28;4951017;28;20189;-51
2023/05/08 04:57:19;;;;;;;3.95;2.38;;;;;;;8.22;94.71;102442.31;4962439;28;20202;-49
2023/05/08 04:59:45;;;;;;;3.03;2.50;;;;;;;8.35;94.46;102448.53;4959564;28;20178;-48
2023/05/08 05:02:10;;;;;;;2.72;2.53;;;;;;;8.39;92.91;102454.72;4945033;28;20222;-48
2023/05/08 05:04:36;;;;;;;2.80;2.50;;;;;;;8.50;91.82;102436.91;4930968;28;20277;-48
2023/05/08 05:07:03;;;;;;;3.15;2.47;;;;;;;8.53;91.08;102450.28;4941053;28;20677;-51
2023/05/08 05:09:29;;;;;;;4.95;2.58;;;;;;;8.61;89.96;102444.88;4937700;28;20205;-49
2023/05/08 05:11:55;;;;;;;2.88;2.53;;;;;;;8.72;89.20;102447.50;4956271;28;20206;-48
2023/05/08 05:14:20;;;;;;;2.75;2.47;;;;;;;8.84;88.48;102437.66;4966865;28;20177;-45
2023/05/08 05:16:46;;;;;;;3.25;2.60;;;;;;;8.73;87.69;102438.63;4950380;28;20201;-47
2023/05/08 05:19:12;;;;;;;3.03;2.83;;;;;;;8.86;87.10;102435.88;4946960;29;20197;-48
2023/05/08 05:21:38;;;;;;;4.30;2.95;;;;;;;9.02;86.46;102446.47;4955469;28;20213;-45
2023/05/08 05:24:05;;;;;;;2.58;2.35;;;;;;;8.91;85.55;102433.16;4961610;28;20182;-47
2023/05/08 05:26:31;;;;;;;3.10;2.80;;;;;;;9.00;85.08;102419.75;4962265;28;20178;-47
2023/05/08 05:28:57;;;;;;;4.00;2.88;;;;;;;9.02;84.84;102430.44;4948910;28;20193;-46
2023/05/08 05:31:23;;;;;;;3.13;2.80;;;;;;;9.04;84.46;102434.88;4947481;29;20540;-45
2023/05/08 05:33:49;;;;;;;5.30;3.60;;;;;;;8.95;83.83;102418.88;4963225;28;20177;-48
2023/05/08 05:36:15;;;;;;;5.22;3.22;;;;;;;9.07;83.93;102431.28;4953651;28;20222;-44
2023/05/08 05:38:40;;;;;;;4.28;3.17;;;;;;;8.98;83.41;102417.97;4960921;28;20188;-46
2023/05/08 05:41:06;;;;;;;3.55;3.25;;;;;;;8.96;83.04;102435.81;4962584;28;20225;-47
2023/05/08 05:43:32;;;;;;;3.50;3.25;;;;;;;9.13;82.90;102425.03;4970222;28;20206;-46
2023/05/08 05:46:08;;;;;;;3.85;3.17;;;;;;;9.05;82.29;102430.41;4963967;28;20177;-45
2023/05/08 05:48:35;;;;;;;4.32;3.30;;;;;;;9.22;81.92;102430.31;4966446;28;20477;-45
2023/05/08 05:51:01;;;;;;;6.22;4.15;;;;;;;9.54;81.95;102427.38;4968378;28;20252;-48
2023/05/08 05:53:27;;;;;;;7.22;3.78;;;;;;;9.84;81.46;102428.03;4967973;28;20563;-49
2023/05/08 05:55:53;;;;;;;3.67;3.38;;;;;;;9.82;80.24;102425.34;4968644;28;20611;-48
2023/05/08 05:58:19;;;;;;;4.00;3.30;;;;;;;10.00;79.32;102407.34;4966603;28;20189;-46
2023/05/08 06:00:46;;;;;;;4.13;3.20;;;;;;;9.97;78.28;102408.25;4961576;28;20183;-46
2023/05/08 06:03:12;;;;;;;3.58;3.22;;;;;;;10.12;77.74;102428.63;4969157;28;20728;-47
2023/05/08 06:05:39;;;;;;;3.45;3.15;;;;;;;10.38;77.11;102406.03;4969365;28;20325;-46
2023/05/08 06:08:05;;;;;;;3.47;3.17;;;;;;;10.37;76.02;102391.78;4961886;28;20200;-46
2023/05/08 06:10:31;;;;;;;3.63;3.33;;;;;;;10.76;75.20;102405.56;4971712;28;20319;-47
2023/05/08 06:12:56;;;;;;;3.90;3.45;;;;;;;10.68;74.51;102419.06;4964678;28;20288;-46
2023/05/08 06:15:22;;;;;;;3.55;3.25;;;;;;;10.59;74.65;102397.75;4963960;28;20269;-47
2023/05/08 06:17:48;;;;;;;3.67;3.20;;;;;;;10.43;74.79;102410.44;4962860;28;20207;-46
2023/05/08 06:20:14;;;;;;;3.90;3.42;;;;;;;10.68;74.67;102411.00;4962292;28;20262;-45
2023/05/08 06:22:40;;;;;;;4.00;3.50;;;;;;;10.87;74.09;102413.47;4958006;28;20293;-46
2023/05/08 06:25:07;;;;;;;3.50;3.10;;;;;;;10.97;73.32;102399.00;4967782;28;20206;-47
2023/05/08 06:27:33;;;;;;;3.03;2.80;;;;;;;10.80;72.76;102401.94;4959533;28;20185;-47
2023/05/08 06:29:59;;;;;;;3.70;3.40;;;;;;;11.02;72.60;102386.41;4958543;28;20201;-47
2023/05/08 06:32:24;;;;;;;3.70;3.40;;;;;;;10.92;72.57;102403.53;4955533;28;20218;-43
2023/05/08 06:34:50;;;;;;;4.45;3.83;;;;;;;11.20;72.57;102393.28;4958903;28;20244;-45
2023/05/08 06:37:15;;;;;;;4.47;3.80;;;;;;;11.49;71.71;102391.91;4960844;28;20206;-45
2023/05/08 06:39:41;;;;;;;4.32;3.92;;;;;;;10.94;71.88;102391.00;4971709;28;20184;-45
2023/05/08 06:42:07;;;;;;;4.10;3.80;;;;;;;11.16;71.99;102394.25;4951093;29;20278;-48
2023/05/08 06:44:36;;;;;;;3.92;3.58;;;;;;;11.30;71.88;102402.97;4950753;28;20173;-47
2023/05/08 06:47:02;;;;;;;3.85;3.55;;;;;;;11.10;71.11;102387.16;4972331;28;20182;-45
2023/05/08 06:49:27;;;;;;;4.90;3.47;;;;;;;11.49;71.04;102391.91;4989833;28;20180;-49
2023/05/08 06:51:53;;;;;;;3.85;3.55;;;;;;;11.26;70.30;102378.88;4991740;28;20232;-50
2023/05/08 06:54:18;;;;;;;3.83;3.53;;;;;;;11.40;70.25;102371.50;4974393;28;20181;-45
2023/05/08 06:56:44;;;;;;;3.78;3.47;;;;;;;11.63;69.96;102378.25;4991581;28;20195;-47
2023/05/08 06:59:10;;;;;;;5.18;3.75;;;;;;;11.76;69.53;102374.44;4965557;28;20286;-49
2023/05/08 07:01:38;;;;;;;3.95;3.65;;;;;;;11.62;69.40;102372.00;4953424;28;20289;-49
2023/05/08 07:04:04;;;;;;;3.67;3.38;;;;;;;12.18;68.75;102357.53;4962553;28;20524;-48
2023/05/08 07:06:30;;;;;;;3.88;3.35;;;;;;;12.86;67.96;102349.78;4960238;28;20236;-48
2023/05/08 07:08:56;;;;;;;6.13;3.63;;;;;;;12.39;67.19;102340.97;4956447;28;20212;-47
2023/05/08 07:11:22;;;;;;;5.22;3.08;;;;;;;12.38;66.41;102346.41;4963231;28;20174;-48
2023/05/08 07:13:47;;;;;;;4.93;3.58;;;;;;;12.58;65.80;102336.97;4962649;28;20191;-50
2023/05/08 07:16:16;;;;;;;3.60;3.30;;;;;;;12.74;65.54;102328.53;4950255;28;20241;-49
2023/05/08 07:18:42;;;;;;;3.67;3.20;;;;;;;12.75;65.00;102322.25;4961688;28;20182;-48
2023/05/08 07:21:08;;;;;;;3.80;2.97;;;;;;;12.38;64.38;102323.09;4961366;28;20193;-49
2023/05/08 07:23:33;;;;;;;3.30;3.00;;;;;;;13.13;64.46;102326.69;4959656;28;20221;-48
2023/05/08 07:25:59;;;;;;;3.17;2.97;;;;;;;13.15;63.85;102324.84;4960078;28;20182;-47
2023/05/08 07:28:24;;;;;;;3.53;2.90;;;;;;;12.96;63.53;102319.03;4958757;28;20520;-47
2023/05/08 07:30:50;;;;;;;3.05;2.85;;;;;;;13.01;62.90;102313.56;4962834;28;20731;-48
2023/05/08 07:33:16;;;;;;;4.68;3.35;;;;;;;12.93;62.98;102323.63;4963387;28;20202;-45
2023/05/08 07:35:42;;;;;;;3.22;2.92;;;;;;;12.57;63.08;102328.91;4947517;28;20309;-49
2023/05/08 07:38:08;;;;;;;3.17;2.97;;;;;;;12.42;63.01;102316.72;4960588;28;20278;-48
2023/05/08 07:40:34;;;;;;;3.30;3.10;;;;;;;12.40;62.42;102320.34;4960747;28;20185;-45
2023/05/08 07:42:59;;;;;;;3.03;2.78;;;;;;;12.97;61.93;102311.88;4951424;28;20609;-46
2023/05/08 07:45:25;;;;;;;5.38;2.83;;;;;;;12.97;61.87;102312.75;4960064;28;20286;-47
2023/05/08 07:47:53;;;;;;;3.15;2.80;;;;;;;13.26;61.58;102294.09;4949000;28;20229;-47
2023/05/08 07:50:19;;;;;;;6.45;2.80;;;;;;;13.21;61.21;102302.31;4963840;28;20728;-49
2023/05/08 07:52:44;;;;;;;2.80;2.60;;;;;;;13.35;61.09;102305.53;4971318;28;20601;-48
2023/05/08 07:55:10;;;;;;;3.53;3.22;;;;;;;13.06;60.69;102289.22;4970512;28;20185;-48
2023/05/08 07:57:39;;;;;;;4.05;3.00;;;;;;;13.05;60.79;102295.53;4955799;28;20207;-44
2023/05/08 08:00:06;;;;;;;2.88;2.67;;;;;;;13.64;60.51;102289.53;4953772;28;20547;-47
2023/05/08 08:02:39;;;;;;;3.30;2.92;;;;;;;13.41;59.56;102285.66;4952772;28;20217;-47
2023/05/08 08:05:05;;;;;;;3.00;2.50;;;;;;;13.37;58.85;102284.84;4962979;28;20545;-48
2023/05/08 08:07:34;;;;;;;3.17;2.45;;;;;;;13.46;59.51;102272.06;4965047;28;20255;-47
2023/05/08 08:10:00;;;;;;;3.60;2.70;;;;;;;13.56;58.62;102269.09;4952066;28;20170;-48
2023/05/08 08:12:26;;;;;;;2.70;2.50;;;;;;;13.57;57.99;102268.16;4966133;28;20194;-48
2023/05/08 08:14:52;;;;;;;2.60;2.40;;;;;;;13.48;58.03;102268.41;4967512;28;20544;-47
2023/05/08 08:17:17;;;;;;;2.85;2.42;;;;;;;13.60;56.94;102256.44;4964734;28;20209;-49
2023/05/08 08:19:43;;;;;;;2.47;2.28;;;;;;;14.25;56.73;102265.31;4971561;28;20174;-50
2023/05/08 08:22:09;;;;;;;2.78;2.58;;;;;;;14.16;55.67;102250.28;4960126;28;20210;-47
2023/05/08 08:24:34;;;;;;;5.85;3.00;;;;;;;14.26;55.15;102238.31;4966871;28;20220;-48
2023/05/08 08:27:00;;;;;;;2.58;2.38;;;;;;;14.07;54.79;102223.63;4970324;28;20873;-46
2023/05/08 08:29:25;;;;;;;4.82;2.35;;;;;;;14.16;54.67;102234.13;4960830;28;20184;-48
2023/05/08 08:31:51;;;;;;;3.80;2.25;;;;;;;14.20;54.44;102230.41;4969771;28;20201;-49
2023/05/08 08:34:17;;;;;;;3.83;2.50;;;;;;;14.42;54.83;102233.31;4965022;28;20178;-46
2023/05/08 08:36:42;;;;;;;5.07;2.55;;;;;;;13.93;54.41;102215.97;4960714;28;20233;-51
2023/05/08 08:39:08;;;;;;;3.90;2.30;;;;;;;14.17;54.51;102222.44;4974793;28;20178;-49
2023/05/08 08:41:33;;;;;;;2.22;2.03;;;;;;;14.46;54.36;102226.00;4957305;28;20175;-49
2023/05/08 08:43:59;;;;;;;2.38;2.17;;;;;;;14.84;53.66;102209.44;4974248;28;20170;-49
2023/05/08 08:46:26;;;;;;;3.83;2.10;;;;;;;14.40;53.68;102211.78;4974939;28;20565;-48
2023/05/08 08:48:55;;;;;;;2.78;2.22;;;;;;;14.62;53.67;102220.06;4965803;28;20173;-51
2023/05/08 08:51:31;;;;;;;6.57;2.22;;;;;;;14.85;53.54;102210.34;4955068;29;20202;-46
2023/05/08 08:54:09;;;;;;;2.47;2.35;;;;;;;15.01;53.19;102199.91;4951100;28;20181;-47
2023/05/08 08:56:38;;;;;;;2.78;2.45;;;;;;;14.96;53.06;102191.97;4969084;28;20195;-48
2023/05/08 08:59:04;;;;;;;2.63;1.95;;;;;;;15.33;52.86;102197.91;4966341;28;20281;-50
2023/05/08 09:01:34;;;;;;;2.22;1.90;;;;;;;14.62;52.84;102195.81;4968193;28;20559;-50
2023/05/08 09:04:01;;;;;;;3.75;2.13;;;;;;;15.09;52.29;102200.53;4953086;28;20192;-51
2023/05/08 09:06:27;;;;;;;1.80;1.70;;;;;;;14.91;51.68;102184.97;4968893;28;20182;-51
2023/05/08 09:08:57;;;;;;;2.78;2.05;;;;;;;15.26;51.26;102170.19;4960654;28;20228;-50
2023/05/08 09:11:23;;;;;;;2.15;1.95;;;;;;;14.79;51.23;102162.88;4961396;28;20186;-49
2023/05/08 09:13:50;;;;;;;2.03;1.80;;;;;;;14.48;50.79;102172.91;4952685;28;20584;-50
2023/05/08 09:16:16;;;;;;;4.07;2.35;;;;;;;14.81;50.75;102152.91;4960480;28;20194;-50
2023/05/08 09:18:42;;;;;;;6.80;2.47;;;;;;;15.08;50.66;102152.84;4957433;28;20634;-52
2023/05/08 09:21:08;;;;;;;2.78;2.17;;;;;;;14.79;50.50;102154.78;4958411;28;20191;-50
2023/05/08 09:23:37;;;;;;;4.10;1.95;;;;;;;15.05;50.71;102158.38;4957936;28;20214;-51
2023/05/08 09:26:02;;;;;;;4.32;2.08;;;;;;;14.57;50.43;102148.34;4962386;28;20193;-51
2023/05/08 09:28:28;;;;;;;11.77;2.78;;;;;;;15.00;50.54;102138.78;4966583;28;20174;-51
2023/05/08 09:30:54;;;;;;;5.45;1.65;;;;;;;14.83;49.56;102139.38;4963112;28;20186;-50
2023/05/08 09:33:21;;;;;;;2.25;1.83;;;;;;;14.75;49.95;102134.22;4966134;28;20673;-50
2023/05/08 09:35:47;;;;;;;2.75;1.60;;;;;;;15.21;50.42;102142.50;4960866;28;20557;-46
2023/05/08 09:38:45;;;;;;;5.65;1.70;;;;;;;15.31;49.68;102143.06;4958125;28;20200;-48
2023/05/08 09:41:15;;;;;;;7.15;2.65;;;;;;;14.93;49.15;102124.59;4924732;28;20206;-48
2023/05/08 09:43:43;;;;;;;4.15;1.58;;;;;;;15.49;49.42;102139.66;4963506;28;20238;-46
2023/05/08 09:46:25;;;;;;;8.35;1.95;;;;;;;15.57;49.56;102147.47;4952918;23;20238;-51
2023/05/08 09:49:01;;;;;;;3.50;1.73;;;;;;;15.78;48.82;102156.59;4951027;28;20193;-49
2023/05/08 09:51:29;;;;;;;2.28;1.90;;;;;;;15.65;48.67;102135.44;4952830;28;20178;-49
2023/05/08 09:53:56;;;;;;;2.10;1.50;;;;;;;15.85;48.81;102148.22;4944339;28;20195;-49
2023/05/08 09:56:40;;;;;;;6.18;2.38;;;;;;;15.80;48.67;102133.09;4939196;29;20833;-48
2023/05/08 09:59:26;;;;;;;17.35;2.88;;;;;;;16.26;49.15;102139.34;4943204;29;20261;-47
2023/05/08 10:01:52;;;;;;;1.85;1.73;;;;;;;16.43;48.79;102152.19;4941657;29;20221;-48
2023/05/08 10:04:34;;;;;;;1.65;1.55;;;;;;;15.93;47.60;102126.25;4946174;29;20276;-48
2023/05/08 10:07:00;;;;;;;1.80;1.67;;;;;;;16.01;47.88;102116.03;4938022;29;20176;-48
2023/05/08 10:09:26;;;;;;;1.80;1.70;;;;;;;16.41;47.62;102127.91;4942688;28;20194;-50
2023/05/08 10:11:53;;;;;;;1.70;1.60;;;;;;;16.77;47.71;102127.28;4940715;29;20289;-48
2023/05/08 10:14:19;;;;;;;2.00;1.63;;;;;;;17.00;47.57;102122.72;4948233;29;20553;-50
2023/05/08 10:16:53;;;;;;;1.70;1.52;;;;;;;16.81;45.97;102106.41;4939008;29;20207;-50
2023/05/08 10:19:27;;;;;;;2.92;1.50;;;;;;;16.65;45.68;102111.56;4941912;29;20282;-52
2023/05/08 10:21:54;;;;;;;3.05;1.60;;;;;;;16.61;46.49;102112.66;4944093;29;20215;-50
2023/05/08 10:24:32;;;;;;;3.65;1.50;;;;;;;17.04;45.55;102089.16;4938381;29;20253;-49
2023/05/08 10:27:12;;;;;;;5.07;1.70;;;;;;;16.33;45.61;102077.78;4945548;29;20625;-46
2023/05/08 10:29:49;;;;;;;8.60;1.92;;;;;;;16.60;46.31;102092.84;4941738;29;20190;-48
2023/05/08 10:32:21;;;;;;;6.68;1.88;;;;;;;16.78;45.26;102090.28;4944874;29;20253;-48
2023/05/08 10:34:59;;;;;;;2.50;1.42;;;;;;;17.05;46.13;102094.50;4947522;29;20191;-50
2023/05/08 10:37:28;;;;;;;1.35;1.25;;;;;;;16.72;44.33;102071.59;4941911;28;20686;-50
2023/05/08 10:39:56;;;;;;;4.65;1.70;;;;;;;16.96;44.27;102077.78;4939562;29;20194;-48
2023/05/08 10:42:22;;;;;;;16.33;2.75;;;;;;;16.64;43.96;102058.41;4940035;28;20207;-47
2023/05/08 10:44:47;;;;;;;1.50;1.23;;;;;;;17.12;43.99;102073.44;4939100;28;20218;-48
2023/05/08 10:47:41;;;;;;;3.03;1.50;;;;;;;16.92;43.91;102059.91;4945643;29;20185;-49
2023/05/08 10:50:32;;;;;;;4.32;1.35;;;;;;;17.37;44.06;102061.44;4937849;28;20219;-52
2023/05/08 10:53:01;;;;;;;5.53;1.60;;;;;;;17.25;43.50;102044.84;4926412;29;20297;-46
2023/05/08 10:55:32;;;;;;;1.88;1.48;;;;;;;16.82;43.79;102038.66;4933549;29;20223;-46
2023/05/08 10:58:03;;;;;;;2.05;1.27;;;;;;;17.06;44.15;102044.78;4933514;29;20192;-47
2023/05/08 11:00:51;;;;;;;2.00;1.35;;;;;;;16.75;43.48;102047.09;4933745;29;20263;-50
2023/05/08 11:03:22;;;;;;;3.17;1.52;;;;;;;17.16;43.70;102047.06;4933252;29;20199;-46
2023/05/08 11:05:50;;;;;;;1.50;1.10;;;;;;;17.64;43.47;102057.41;4946703;29;20286;-50
2023/05/08 11:08:18;;;;;;;1.60;1.20;;;;;;;17.70;43.09;102048.97;4952480;29;20317;-47
2023/05/08 11:11:05;;;;;;;2.28;1.35;;;;;;;17.61;42.46;102049.44;4952758;29;20198;-50
2023/05/08 11:13:33;;;;;;;4.90;1.23;;;;;;;17.49;42.50;102033.75;4940625;29;20207;-48
2023/05/08 11:15:59;;;;;;;3.78;1.25;;;;;;;17.22;42.06;102031.41;4933251;29;20605;-47
2023/05/08 11:18:26;;;;;;;1.75;1.30;;;;;;;17.41;42.47;102036.84;4951831;29;20229;-50
2023/05/08 11:20:56;;;;;;;3.95;1.50;;;;;;;17.53;41.81;102029.94;4935019;29;20209;-48
2023/05/08 11:23:22;;;;;;;1.27;1.20;;;;;;;17.85;41.97;102017.56;4915932;29;20544;-47
2023/05/08 11:26:03;;;;;;;3.13;1.40;;;;;;;17.32;42.35;102017.44;4931041;29;20203;-48
2023/05/08 11:28:35;;;;;;;4.93;1.50;;;;;;;17.61;42.43;102029.59;4916130;29;20512;-51
2023/05/08 11:31:07;;;;;;;2.08;1.40;;;;;;;17.68;42.36;102023.78;4943432;29;20182;-49
2023/05/08 11:33:36;;;;;;;3.67;1.17;;;;;;;17.88;42.33;102033.66;4942386;29;20205;-47
2023/05/08 11:36:15;;;;;;;9.32;1.63;;;;;;;17.73;41.78;102025.38;4937035;29;20318;-47
2023/05/08 11:38:42;;;;;;;11.35;2.20;;;;;;;17.16;41.61;102011.88;4943177;29;20560;-49